sensor_id;sensor_type;location;lat;lon;timestamp;P1;durP1;ratioP1;P2;durP2;ratioP2
58017;SDS011;43810;50.860;19.226;2023-03-01T00:01:12;138.07;;;51.33;;
58017;SDS011;43810;50.860;19.226;2023-03-01T00:03:40;140.60;;;54.20;;
58017;SDS011;43810;50.860;19.226;2023-03-01T00:06:06;142.43;;;50.45;;
58017;SDS011;43810;50.860;19.226;2023-03-01T00:08:32;148.57;;;53.08;;
58017;SDS011;43810;50.860;19.226;2023-03-01T00:11:00;127.65;;;49.00;;
58017;SDS011;43810;50.860;19.226;2023-03-01T00:16:36;118.75;;;43.03;;
58017;SDS011;43810;50.860;19.226;2023-03-01T00:19:05;138.27;;;50.08;;
58017;SDS011;43810;50.860;19.226;2023-03-01T00:21:32;138.02;;;47.90;;
58017;SDS011;43810;50.860;19.226;2023-03-01T00:23:59;120.97;;;43.83;;
58017;SDS011;43810;50.860;19.226;2023-03-01T00:26:25;121.85;;;44.92;;
58017;SDS011;43810;50.860;19.226;2023-03-01T00:28:51;125.30;;;46.03;;
58017;SDS011;43810;50.860;19.226;2023-03-01T00:31:18;120.25;;;45.95;;
58017;SDS011;43810;50.860;19.226;2023-03-01T00:33:45;125.57;;;47.05;;
58017;SDS011;43810;50.860;19.226;2023-03-01T00:36:12;114.07;;;42.92;;
58017;SDS011;43810;50.860;19.226;2023-03-01T00:38:41;126.60;;;45.90;;
58017;SDS011;43810;50.860;19.226;2023-03-01T00:41:12;111.13;;;44.92;;
58017;SDS011;43810;50.860;19.226;2023-03-01T00:43:39;104.38;;;39.40;;
58017;SDS011;43810;50.860;19.226;2023-03-01T00:46:10;103.18;;;41.05;;
58017;SDS011;43810;50.860;19.226;2023-03-01T00:48:40;120.38;;;45.38;;
58017;SDS011;43810;50.860;19.226;2023-03-01T00:51:07;115.60;;;41.90;;
58017;SDS011;43810;50.860;19.226;2023-03-01T00:53:35;120.35;;;43.58;;
58017;SDS011;43810;50.860;19.226;2023-03-01T00:56:01;117.47;;;42.22;;
58017;SDS011;43810;50.860;19.226;2023-03-01T00:58:29;112.22;;;43.58;;
58017;SDS011;43810;50.860;19.226;2023-03-01T01:00:55;115.80;;;43.30;;
58017;SDS011;43810;50.860;19.226;2023-03-01T01:03:21;99.53;;;41.08;;
58017;SDS011;43810;50.860;19.226;2023-03-01T01:05:47;110.78;;;43.00;;
58017;SDS011;43810;50.860;19.226;2023-03-01T01:08:13;108.57;;;44.58;;
58017;SDS011;43810;50.860;19.226;2023-03-01T01:10:39;105.85;;;40.47;;
58017;SDS011;43810;50.860;19.226;2023-03-01T01:13:04;104.45;;;41.28;;
58017;SDS011;43810;50.860;19.226;2023-03-01T01:15:34;102.80;;;41.67;;
58017;SDS011;43810;50.860;19.226;2023-03-01T01:18:00;110.93;;;44.67;;
58017;SDS011;43810;50.860;19.226;2023-03-01T01:20:26;112.63;;;42.55;;
58017;SDS011;43810;50.860;19.226;2023-03-01T01:22:52;99.45;;;42.00;;
58017;SDS011;43810;50.860;19.226;2023-03-01T01:25:18;105.00;;;40.33;;
58017;SDS011;43810;50.860;19.226;2023-03-01T01:27:43;108.13;;;40.38;;
58017;SDS011;43810;50.860;19.226;2023-03-01T01:30:10;107.07;;;42.85;;
58017;SDS011;43810;50.860;19.226;2023-03-01T01:32:36;104.00;;;39.90;;
58017;SDS011;43810;50.860;19.226;2023-03-01T01:35:02;101.65;;;37.03;;
58017;SDS011;43810;50.860;19.226;2023-03-01T01:37:28;103.00;;;38.08;;
58017;SDS011;43810;50.860;19.226;2023-03-01T01:39:59;100.75;;;36.38;;
58017;SDS011;43810;50.860;19.226;2023-03-01T01:42:28;91.53;;;35.35;;
58017;SDS011;43810;50.860;19.226;2023-03-01T01:47:52;90.28;;;36.65;;
58017;SDS011;43810;50.860;19.226;2023-03-01T01:50:19;100.82;;;39.45;;
58017;SDS011;43810;50.860;19.226;2023-03-01T01:52:45;96.13;;;36.60;;
58017;SDS011;43810;50.860;19.226;2023-03-01T01:55:18;106.97;;;39.60;;
58017;SDS011;43810;50.860;19.226;2023-03-01T01:57:51;97.35;;;38.45;;
58017;SDS011;43810;50.860;19.226;2023-03-01T02:00:21;103.47;;;40.95;;
58017;SDS011;43810;50.860;19.226;2023-03-01T02:02:49;87.47;;;36.30;;
58017;SDS011;43810;50.860;19.226;2023-03-01T02:05:22;105.13;;;39.85;;
58017;SDS011;43810;50.860;19.226;2023-03-01T02:07:53;105.75;;;40.95;;
58017;SDS011;43810;50.860;19.226;2023-03-01T02:10:22;109.95;;;40.20;;
58017;SDS011;43810;50.860;19.226;2023-03-01T02:12:49;100.85;;;41.17;;
58017;SDS011;43810;50.860;19.226;2023-03-01T02:15:16;100.00;;;41.45;;
58017;SDS011;43810;50.860;19.226;2023-03-01T02:17:42;107.05;;;40.22;;
58017;SDS011;43810;50.860;19.226;2023-03-01T02:20:29;97.55;;;39.33;;
58017;SDS011;43810;50.860;19.226;2023-03-01T02:23:00;106.97;;;38.63;;
58017;SDS011;43810;50.860;19.226;2023-03-01T02:25:38;99.80;;;39.22;;
58017;SDS011;43810;50.860;19.226;2023-03-01T02:30:41;93.45;;;38.85;;
58017;SDS011;43810;50.860;19.226;2023-03-01T02:33:28;76.38;;;34.63;;
58017;SDS011;43810;50.860;19.226;2023-03-01T02:38:30;84.25;;;32.83;;
58017;SDS011;43810;50.860;19.226;2023-03-01T02:40:57;91.47;;;33.67;;
58017;SDS011;43810;50.860;19.226;2023-03-01T02:43:24;95.55;;;37.22;;
58017;SDS011;43810;50.860;19.226;2023-03-01T02:45:58;79.13;;;33.03;;
58017;SDS011;43810;50.860;19.226;2023-03-01T02:48:44;90.93;;;34.47;;
58017;SDS011;43810;50.860;19.226;2023-03-01T02:51:18;78.13;;;33.38;;
58017;SDS011;43810;50.860;19.226;2023-03-01T02:53:53;97.97;;;38.03;;
58017;SDS011;43810;50.860;19.226;2023-03-01T02:56:19;108.45;;;41.10;;
58017;SDS011;43810;50.860;19.226;2023-03-01T02:58:45;122.28;;;49.33;;
58017;SDS011;43810;50.860;19.226;2023-03-01T03:01:13;144.55;;;57.72;;
58017;SDS011;43810;50.860;19.226;2023-03-01T03:03:41;165.55;;;63.42;;
58017;SDS011;43810;50.860;19.226;2023-03-01T03:06:07;175.98;;;63.92;;
58017;SDS011;43810;50.860;19.226;2023-03-01T03:08:34;182.73;;;63.30;;
58017;SDS011;43810;50.860;19.226;2023-03-01T03:11:00;186.07;;;65.32;;
58017;SDS011;43810;50.860;19.226;2023-03-01T03:13:25;218.93;;;70.35;;
58017;SDS011;43810;50.860;19.226;2023-03-01T03:15:54;168.85;;;64.18;;
58017;SDS011;43810;50.860;19.226;2023-03-01T03:18:21;182.40;;;65.80;;
58017;SDS011;43810;50.860;19.226;2023-03-01T03:20:48;182.50;;;66.15;;
58017;SDS011;43810;50.860;19.226;2023-03-01T03:23:18;170.88;;;59.83;;
58017;SDS011;43810;50.860;19.226;2023-03-01T03:25:47;134.48;;;55.33;;
58017;SDS011;43810;50.860;19.226;2023-03-01T03:28:14;155.25;;;56.30;;
58017;SDS011;43810;50.860;19.226;2023-03-01T03:30:41;142.43;;;54.97;;
58017;SDS011;43810;50.860;19.226;2023-03-01T03:33:09;142.43;;;54.20;;
58017;SDS011;43810;50.860;19.226;2023-03-01T03:35:43;142.75;;;54.40;;
58017;SDS011;43810;50.860;19.226;2023-03-01T03:38:11;150.77;;;55.67;;
58017;SDS011;43810;50.860;19.226;2023-03-01T03:40:42;152.35;;;58.20;;
58017;SDS011;43810;50.860;19.226;2023-03-01T03:43:12;151.73;;;57.95;;
58017;SDS011;43810;50.860;19.226;2023-03-01T03:45:39;134.60;;;55.38;;
58017;SDS011;43810;50.860;19.226;2023-03-01T03:48:07;139.68;;;57.28;;
58017;SDS011;43810;50.860;19.226;2023-03-01T03:50:35;141.77;;;53.13;;
58017;SDS011;43810;50.860;19.226;2023-03-01T03:53:03;147.77;;;60.22;;
58017;SDS011;43810;50.860;19.226;2023-03-01T03:55:31;171.10;;;63.72;;
58017;SDS011;43810;50.860;19.226;2023-03-01T03:57:59;180.18;;;62.00;;
58017;SDS011;43810;50.860;19.226;2023-03-01T04:00:36;206.18;;;70.55;;
58017;SDS011;43810;50.860;19.226;2023-03-01T04:03:04;219.65;;;77.78;;
58017;SDS011;43810;50.860;19.226;2023-03-01T04:05:30;231.32;;;83.50;;
58017;SDS011;43810;50.860;19.226;2023-03-01T04:07:56;220.25;;;80.28;;
58017;SDS011;43810;50.860;19.226;2023-03-01T04:12:55;187.68;;;70.15;;
58017;SDS011;43810;50.860;19.226;2023-03-01T04:15:22;241.57;;;87.40;;
58017;SDS011;43810;50.860;19.226;2023-03-01T04:17:51;239.57;;;79.80;;
58017;SDS011;43810;50.860;19.226;2023-03-01T04:20:21;232.93;;;86.70;;
58017;SDS011;43810;50.860;19.226;2023-03-01T04:23:08;245.68;;;89.85;;
58017;SDS011;43810;50.860;19.226;2023-03-01T04:25:39;261.90;;;90.50;;
58017;SDS011;43810;50.860;19.226;2023-03-01T04:28:07;260.20;;;89.57;;
58017;SDS011;43810;50.860;19.226;2023-03-01T04:30:35;239.60;;;86.78;;
58017;SDS011;43810;50.860;19.226;2023-03-01T04:33:02;230.30;;;87.35;;
58017;SDS011;43810;50.860;19.226;2023-03-01T04:35:33;217.38;;;82.97;;
58017;SDS011;43810;50.860;19.226;2023-03-01T04:38:00;250.77;;;91.53;;
58017;SDS011;43810;50.860;19.226;2023-03-01T04:40:26;245.43;;;91.75;;
58017;SDS011;43810;50.860;19.226;2023-03-01T04:42:52;255.10;;;92.15;;
58017;SDS011;43810;50.860;19.226;2023-03-01T04:45:18;282.52;;;101.32;;
58017;SDS011;43810;50.860;19.226;2023-03-01T04:47:45;264.88;;;103.43;;
58017;SDS011;43810;50.860;19.226;2023-03-01T04:50:13;290.25;;;103.43;;
58017;SDS011;43810;50.860;19.226;2023-03-01T04:52:41;273.83;;;105.90;;
58017;SDS011;43810;50.860;19.226;2023-03-01T04:55:09;270.48;;;103.47;;
58017;SDS011;43810;50.860;19.226;2023-03-01T04:57:35;272.88;;;101.10;;
58017;SDS011;43810;50.860;19.226;2023-03-01T05:00:02;264.73;;;102.57;;
58017;SDS011;43810;50.860;19.226;2023-03-01T05:02:53;274.02;;;101.32;;
58017;SDS011;43810;50.860;19.226;2023-03-01T05:05:35;256.13;;;97.97;;
58017;SDS011;43810;50.860;19.226;2023-03-01T05:08:04;265.17;;;96.85;;
58017;SDS011;43810;50.860;19.226;2023-03-01T05:10:32;262.75;;;95.47;;
58017;SDS011;43810;50.860;19.226;2023-03-01T05:13:00;247.77;;;98.78;;
58017;SDS011;43810;50.860;19.226;2023-03-01T05:15:30;275.70;;;97.95;;
58017;SDS011;43810;50.860;19.226;2023-03-01T05:17:58;274.85;;;99.10;;
58017;SDS011;43810;50.860;19.226;2023-03-01T05:20:25;240.73;;;96.75;;
58017;SDS011;43810;50.860;19.226;2023-03-01T05:22:52;235.15;;;91.80;;
58017;SDS011;43810;50.860;19.226;2023-03-01T05:25:21;226.15;;;88.25;;
58017;SDS011;43810;50.860;19.226;2023-03-01T05:27:47;213.73;;;81.63;;
58017;SDS011;43810;50.860;19.226;2023-03-01T05:30:13;224.80;;;85.72;;
58017;SDS011;43810;50.860;19.226;2023-03-01T05:32:40;187.80;;;79.25;;
58017;SDS011;43810;50.860;19.226;2023-03-01T05:35:12;204.98;;;77.63;;
58017;SDS011;43810;50.860;19.226;2023-03-01T05:37:39;225.90;;;79.90;;
58017;SDS011;43810;50.860;19.226;2023-03-01T05:40:10;211.10;;;75.38;;
58017;SDS011;43810;50.860;19.226;2023-03-01T05:42:44;203.23;;;78.40;;
58017;SDS011;43810;50.860;19.226;2023-03-01T05:45:14;275.95;;;94.70;;
58017;SDS011;43810;50.860;19.226;2023-03-01T05:47:42;306.45;;;103.97;;
58017;SDS011;43810;50.860;19.226;2023-03-01T05:50:19;245.32;;;85.18;;
58017;SDS011;43810;50.860;19.226;2023-03-01T05:52:48;212.85;;;80.85;;
58017;SDS011;43810;50.860;19.226;2023-03-01T05:55:19;213.27;;;82.03;;
58017;SDS011;43810;50.860;19.226;2023-03-01T05:57:46;234.10;;;87.10;;
58017;SDS011;43810;50.860;19.226;2023-03-01T06:00:12;246.38;;;88.10;;
58017;SDS011;43810;50.860;19.226;2023-03-01T06:02:43;199.93;;;79.82;;
58017;SDS011;43810;50.860;19.226;2023-03-01T06:05:09;201.43;;;75.75;;
58017;SDS011;43810;50.860;19.226;2023-03-01T06:07:36;227.02;;;79.72;;
58017;SDS011;43810;50.860;19.226;2023-03-01T06:10:03;202.43;;;76.43;;
58017;SDS011;43810;50.860;19.226;2023-03-01T06:12:33;249.15;;;89.05;;
58017;SDS011;43810;50.860;19.226;2023-03-01T06:15:03;242.48;;;93.18;;
58017;SDS011;43810;50.860;19.226;2023-03-01T06:17:30;232.00;;;87.97;;
58017;SDS011;43810;50.860;19.226;2023-03-01T06:19:57;230.65;;;87.68;;
58017;SDS011;43810;50.860;19.226;2023-03-01T06:22:23;283.70;;;101.65;;
58017;SDS011;43810;50.860;19.226;2023-03-01T06:24:49;272.58;;;103.30;;
58017;SDS011;43810;50.860;19.226;2023-03-01T06:27:15;275.92;;;104.07;;
58017;SDS011;43810;50.860;19.226;2023-03-01T06:29:41;277.63;;;102.32;;
58017;SDS011;43810;50.860;19.226;2023-03-01T06:32:07;275.17;;;102.30;;
58017;SDS011;43810;50.860;19.226;2023-03-01T06:34:34;262.17;;;95.25;;
58017;SDS011;43810;50.860;19.226;2023-03-01T06:37:00;250.82;;;91.82;;
58017;SDS011;43810;50.860;19.226;2023-03-01T06:39:28;243.88;;;90.40;;
58017;SDS011;43810;50.860;19.226;2023-03-01T06:41:53;246.80;;;90.50;;
58017;SDS011;43810;50.860;19.226;2023-03-01T06:44:19;257.60;;;100.05;;
58017;SDS011;43810;50.860;19.226;2023-03-01T06:46:45;267.50;;;99.95;;
58017;SDS011;43810;50.860;19.226;2023-03-01T06:49:11;273.77;;;104.03;;
58017;SDS011;43810;50.860;19.226;2023-03-01T06:51:37;248.45;;;96.88;;
58017;SDS011;43810;50.860;19.226;2023-03-01T06:54:06;245.38;;;94.25;;
58017;SDS011;43810;50.860;19.226;2023-03-01T06:56:31;250.13;;;93.50;;
58017;SDS011;43810;50.860;19.226;2023-03-01T06:58:57;250.80;;;91.90;;
58017;SDS011;43810;50.860;19.226;2023-03-01T07:01:23;231.40;;;91.07;;
58017;SDS011;43810;50.860;19.226;2023-03-01T07:03:50;244.80;;;93.72;;
58017;SDS011;43810;50.860;19.226;2023-03-01T07:06:16;248.73;;;101.38;;
58017;SDS011;43810;50.860;19.226;2023-03-01T07:08:43;273.08;;;104.25;;
58017;SDS011;43810;50.860;19.226;2023-03-01T07:11:08;244.65;;;99.25;;
58017;SDS011;43810;50.860;19.226;2023-03-01T07:13:34;258.42;;;104.88;;
58017;SDS011;43810;50.860;19.226;2023-03-01T07:16:00;257.52;;;103.18;;
58017;SDS011;43810;50.860;19.226;2023-03-01T07:18:26;256.92;;;102.63;;
58017;SDS011;43810;50.860;19.226;2023-03-01T07:20:52;245.02;;;103.15;;
58017;SDS011;43810;50.860;19.226;2023-03-01T07:23:18;255.68;;;103.07;;
58017;SDS011;43810;50.860;19.226;2023-03-01T07:25:44;269.75;;;108.13;;
58017;SDS011;43810;50.860;19.226;2023-03-01T07:28:16;275.77;;;114.47;;
58017;SDS011;43810;50.860;19.226;2023-03-01T07:30:41;278.50;;;115.57;;
58017;SDS011;43810;50.860;19.226;2023-03-01T07:33:07;273.50;;;113.20;;
58017;SDS011;43810;50.860;19.226;2023-03-01T07:35:33;284.75;;;115.70;;
58017;SDS011;43810;50.860;19.226;2023-03-01T07:37:59;272.90;;;112.10;;
58017;SDS011;43810;50.860;19.226;2023-03-01T07:40:25;233.20;;;96.88;;
58017;SDS011;43810;50.860;19.226;2023-03-01T07:42:54;201.25;;;87.38;;
58017;SDS011;43810;50.860;19.226;2023-03-01T07:45:24;159.23;;;69.22;;
58017;SDS011;43810;50.860;19.226;2023-03-01T07:47:51;142.27;;;57.65;;
58017;SDS011;43810;50.860;19.226;2023-03-01T07:50:18;125.63;;;52.40;;
58017;SDS011;43810;50.860;19.226;2023-03-01T07:52:47;125.25;;;52.47;;
58017;SDS011;43810;50.860;19.226;2023-03-01T07:55:14;133.02;;;56.55;;
58017;SDS011;43810;50.860;19.226;2023-03-01T07:57:42;125.60;;;55.30;;
58017;SDS011;43810;50.860;19.226;2023-03-01T08:00:09;110.90;;;47.90;;
58017;SDS011;43810;50.860;19.226;2023-03-01T08:02:36;114.40;;;48.40;;
58017;SDS011;43810;50.860;19.226;2023-03-01T08:05:03;77.03;;;33.92;;
58017;SDS011;43810;50.860;19.226;2023-03-01T08:07:29;97.75;;;39.78;;
58017;SDS011;43810;50.860;19.226;2023-03-01T08:09:54;103.10;;;41.83;;
58017;SDS011;43810;50.860;19.226;2023-03-01T08:12:20;76.88;;;33.42;;
58017;SDS011;43810;50.860;19.226;2023-03-01T08:14:46;76.03;;;32.67;;
58017;SDS011;43810;50.860;19.226;2023-03-01T08:17:16;80.50;;;36.42;;
58017;SDS011;43810;50.860;19.226;2023-03-01T08:19:42;73.07;;;33.33;;
58017;SDS011;43810;50.860;19.226;2023-03-01T08:22:08;62.15;;;27.25;;
58017;SDS011;43810;50.860;19.226;2023-03-01T08:24:34;47.55;;;21.90;;
58017;SDS011;43810;50.860;19.226;2023-03-01T08:27:00;39.42;;;17.80;;
58017;SDS011;43810;50.860;19.226;2023-03-01T08:29:29;51.90;;;18.02;;
58017;SDS011;43810;50.860;19.226;2023-03-01T08:31:56;40.47;;;17.70;;
58017;SDS011;43810;50.860;19.226;2023-03-01T08:34:22;41.70;;;18.38;;
58017;SDS011;43810;50.860;19.226;2023-03-01T08:36:48;39.13;;;16.60;;
58017;SDS011;43810;50.860;19.226;2023-03-01T08:39:16;40.45;;;18.60;;
58017;SDS011;43810;50.860;19.226;2023-03-01T08:41:43;49.00;;;20.20;;
58017;SDS011;43810;50.860;19.226;2023-03-01T08:44:09;43.92;;;19.88;;
58017;SDS011;43810;50.860;19.226;2023-03-01T08:46:37;43.55;;;18.80;;
58017;SDS011;43810;50.860;19.226;2023-03-01T08:49:06;59.25;;;24.27;;
58017;SDS011;43810;50.860;19.226;2023-03-01T08:51:33;63.63;;;27.65;;
58017;SDS011;43810;50.860;19.226;2023-03-01T08:54:20;57.60;;;26.98;;
58017;SDS011;43810;50.860;19.226;2023-03-01T08:56:47;46.00;;;22.30;;
58017;SDS011;43810;50.860;19.226;2023-03-01T08:59:16;49.22;;;23.08;;
58017;SDS011;43810;50.860;19.226;2023-03-01T09:01:43;51.70;;;22.27;;
58017;SDS011;43810;50.860;19.226;2023-03-01T09:04:10;50.80;;;22.50;;
58017;SDS011;43810;50.860;19.226;2023-03-01T09:06:37;57.50;;;25.55;;
58017;SDS011;43810;50.860;19.226;2023-03-01T09:09:03;58.60;;;25.17;;
58017;SDS011;43810;50.860;19.226;2023-03-01T09:11:30;52.38;;;24.98;;
58017;SDS011;43810;50.860;19.226;2023-03-01T09:13:56;61.30;;;28.75;;
58017;SDS011;43810;50.860;19.226;2023-03-01T09:16:22;71.43;;;29.70;;
58017;SDS011;43810;50.860;19.226;2023-03-01T09:18:49;65.68;;;28.77;;
58017;SDS011;43810;50.860;19.226;2023-03-01T09:21:17;64.25;;;26.00;;
58017;SDS011;43810;50.860;19.226;2023-03-01T09:23:45;41.28;;;19.90;;
58017;SDS011;43810;50.860;19.226;2023-03-01T09:26:13;40.58;;;19.45;;
58017;SDS011;43810;50.860;19.226;2023-03-01T09:28:44;44.65;;;20.00;;
58017;SDS011;43810;50.860;19.226;2023-03-01T09:31:12;43.13;;;19.50;;
58017;SDS011;43810;50.860;19.226;2023-03-01T09:33:40;40.88;;;19.73;;
58017;SDS011;43810;50.860;19.226;2023-03-01T09:36:08;36.60;;;18.23;;
58017;SDS011;43810;50.860;19.226;2023-03-01T09:38:37;37.65;;;18.08;;
58017;SDS011;43810;50.860;19.226;2023-03-01T09:41:08;41.45;;;19.08;;
58017;SDS011;43810;50.860;19.226;2023-03-01T09:44:38;40.38;;;18.85;;
58017;SDS011;43810;50.860;19.226;2023-03-01T09:46:47;33.20;;;17.90;;
58017;SDS011;43810;50.860;19.226;2023-03-01T09:49:18;30.67;;;15.93;;
58017;SDS011;43810;50.860;19.226;2023-03-01T09:54:26;38.13;;;15.60;;
58017;SDS011;43810;50.860;19.226;2023-03-01T10:10:43;41.38;;;19.42;;
58017;SDS011;43810;50.860;19.226;2023-03-01T10:13:17;46.22;;;18.85;;
58017;SDS011;43810;50.860;19.226;2023-03-01T10:15:53;44.30;;;21.83;;
58017;SDS011;43810;50.860;19.226;2023-03-01T10:18:28;40.97;;;18.83;;
58017;SDS011;43810;50.860;19.226;2023-03-01T10:21:02;36.83;;;17.88;;
58017;SDS011;43810;50.860;19.226;2023-03-01T10:23:35;43.30;;;20.05;;
58017;SDS011;43810;50.860;19.226;2023-03-01T10:26:07;42.90;;;18.25;;
58017;SDS011;43810;50.860;19.226;2023-03-01T10:31:43;34.05;;;16.40;;
58017;SDS011;43810;50.860;19.226;2023-03-01T10:34:14;33.28;;;16.75;;
58017;SDS011;43810;50.860;19.226;2023-03-01T10:36:43;33.38;;;16.50;;
58017;SDS011;43810;50.860;19.226;2023-03-01T10:39:14;40.67;;;16.85;;
58017;SDS011;43810;50.860;19.226;2023-03-01T10:44:44;38.13;;;17.05;;
58017;SDS011;43810;50.860;19.226;2023-03-01T10:47:14;33.22;;;15.10;;
58017;SDS011;43810;50.860;19.226;2023-03-01T10:50:09;32.45;;;15.73;;
58017;SDS011;43810;50.860;19.226;2023-03-01T10:52:43;32.45;;;14.73;;
58017;SDS011;43810;50.860;19.226;2023-03-01T10:55:28;29.50;;;14.30;;
58017;SDS011;43810;50.860;19.226;2023-03-01T11:00:47;23.45;;;13.50;;
58017;SDS011;43810;50.860;19.226;2023-03-01T11:03:14;28.67;;;14.63;;
58017;SDS011;43810;50.860;19.226;2023-03-01T11:06:19;27.38;;;14.57;;
58017;SDS011;43810;50.860;19.226;2023-03-01T11:08:38;28.85;;;14.68;;
58017;SDS011;43810;50.860;19.226;2023-03-01T11:13:34;32.00;;;16.67;;
58017;SDS011;43810;50.860;19.226;2023-03-01T11:16:10;32.05;;;13.65;;
58017;SDS011;43810;50.860;19.226;2023-03-01T11:18:37;36.47;;;15.65;;
58017;SDS011;43810;50.860;19.226;2023-03-01T11:21:04;35.42;;;16.02;;
58017;SDS011;43810;50.860;19.226;2023-03-01T11:23:31;38.95;;;17.25;;
58017;SDS011;43810;50.860;19.226;2023-03-01T11:25:59;32.65;;;15.60;;
58017;SDS011;43810;50.860;19.226;2023-03-01T11:28:33;33.10;;;16.35;;
58017;SDS011;43810;50.860;19.226;2023-03-01T11:33:34;29.80;;;14.35;;
58017;SDS011;43810;50.860;19.226;2023-03-01T11:38:55;30.15;;;15.20;;
58017;SDS011;43810;50.860;19.226;2023-03-01T11:41:27;33.70;;;15.65;;
58017;SDS011;43810;50.860;19.226;2023-03-01T11:44:04;36.53;;;15.15;;
58017;SDS011;43810;50.860;19.226;2023-03-01T11:47:03;35.80;;;15.75;;
58017;SDS011;43810;50.860;19.226;2023-03-01T12:03:51;29.20;;;14.57;;
58017;SDS011;43810;50.860;19.226;2023-03-01T12:17:39;29.38;;;14.73;;
58017;SDS011;43810;50.860;19.226;2023-03-01T12:20:35;27.10;;;14.18;;
58017;SDS011;43810;50.860;19.226;2023-03-01T12:32:21;23.38;;;12.50;;
58017;SDS011;43810;50.860;19.226;2023-03-01T12:40:43;26.58;;;14.02;;
58017;SDS011;43810;50.860;19.226;2023-03-01T12:43:21;29.38;;;14.40;;
58017;SDS011;43810;50.860;19.226;2023-03-01T12:49:20;27.90;;;14.23;;
58017;SDS011;43810;50.860;19.226;2023-03-01T12:51:55;27.30;;;15.23;;
58017;SDS011;43810;50.860;19.226;2023-03-01T12:54:30;29.42;;;14.50;;
58017;SDS011;43810;50.860;19.226;2023-03-01T12:57:01;27.42;;;13.68;;
58017;SDS011;43810;50.860;19.226;2023-03-01T12:59:59;23.10;;;13.30;;
58017;SDS011;43810;50.860;19.226;2023-03-01T13:02:48;28.17;;;15.75;;
58017;SDS011;43810;50.860;19.226;2023-03-01T13:08:33;29.48;;;15.07;;
58017;SDS011;43810;50.860;19.226;2023-03-01T13:11:17;34.22;;;16.33;;
58017;SDS011;43810;50.860;19.226;2023-03-01T13:13:44;29.83;;;15.85;;
58017;SDS011;43810;50.860;19.226;2023-03-01T13:19:13;27.85;;;15.40;;
58017;SDS011;43810;50.860;19.226;2023-03-01T13:21:42;32.00;;;18.40;;
58017;SDS011;43810;50.860;19.226;2023-03-01T13:29:56;26.17;;;15.52;;
58017;SDS011;43810;50.860;19.226;2023-03-01T13:32:25;32.55;;;17.13;;
58017;SDS011;43810;50.860;19.226;2023-03-01T13:35:00;33.10;;;17.33;;
58017;SDS011;43810;50.860;19.226;2023-03-01T13:37:30;30.92;;;18.33;;
58017;SDS011;43810;50.860;19.226;2023-03-01T13:39:59;37.90;;;18.75;;
58017;SDS011;43810;50.860;19.226;2023-03-01T13:42:31;35.08;;;16.55;;
58017;SDS011;43810;50.860;19.226;2023-03-01T13:44:58;27.85;;;15.43;;
58017;SDS011;43810;50.860;19.226;2023-03-01T13:47:25;33.25;;;18.15;;
58017;SDS011;43810;50.860;19.226;2023-03-01T13:50:00;28.40;;;16.10;;
58017;SDS011;43810;50.860;19.226;2023-03-01T13:57:39;24.42;;;14.85;;
58017;SDS011;43810;50.860;19.226;2023-03-01T14:00:27;27.80;;;13.95;;
58017;SDS011;43810;50.860;19.226;2023-03-01T14:03:27;25.48;;;13.63;;
58017;SDS011;43810;50.860;19.226;2023-03-01T14:09:01;17.77;;;10.40;;
58017;SDS011;43810;50.860;19.226;2023-03-01T14:14:37;16.52;;;9.20;;
58017;SDS011;43810;50.860;19.226;2023-03-01T14:17:11;14.93;;;8.57;;
58017;SDS011;43810;50.860;19.226;2023-03-01T14:19:44;19.40;;;9.88;;
58017;SDS011;43810;50.860;19.226;2023-03-01T14:22:20;18.55;;;10.00;;
58017;SDS011;43810;50.860;19.226;2023-03-01T14:24:50;17.73;;;10.30;;
58017;SDS011;43810;50.860;19.226;2023-03-01T14:27:19;20.52;;;9.77;;
58017;SDS011;43810;50.860;19.226;2023-03-01T14:29:56;16.65;;;9.38;;
58017;SDS011;43810;50.860;19.226;2023-03-01T14:32:25;17.25;;;9.60;;
58017;SDS011;43810;50.860;19.226;2023-03-01T14:34:53;19.10;;;9.68;;
58017;SDS011;43810;50.860;19.226;2023-03-01T14:39:53;19.52;;;10.73;;
58017;SDS011;43810;50.860;19.226;2023-03-01T14:42:20;24.20;;;11.23;;
58017;SDS011;43810;50.860;19.226;2023-03-01T14:44:49;20.45;;;10.65;;
58017;SDS011;43810;50.860;19.226;2023-03-01T14:47:38;21.52;;;10.85;;
58017;SDS011;43810;50.860;19.226;2023-03-01T14:50:07;20.33;;;10.07;;
58017;SDS011;43810;50.860;19.226;2023-03-01T14:52:41;20.58;;;9.88;;
58017;SDS011;43810;50.860;19.226;2023-03-01T14:55:15;18.00;;;9.48;;
58017;SDS011;43810;50.860;19.226;2023-03-01T14:57:44;20.92;;;9.85;;
58017;SDS011;43810;50.860;19.226;2023-03-01T15:00:46;15.35;;;9.07;;
58017;SDS011;43810;50.860;19.226;2023-03-01T15:03:13;21.60;;;10.18;;
58017;SDS011;43810;50.860;19.226;2023-03-01T15:05:45;22.13;;;9.73;;
58017;SDS011;43810;50.860;19.226;2023-03-01T15:08:16;17.40;;;8.93;;
58017;SDS011;43810;50.860;19.226;2023-03-01T15:10:55;18.88;;;8.32;;
58017;SDS011;43810;50.860;19.226;2023-03-01T15:13:43;19.75;;;9.25;;
58017;SDS011;43810;50.860;19.226;2023-03-01T15:16:12;20.05;;;9.70;;
58017;SDS011;43810;50.860;19.226;2023-03-01T15:18:45;16.83;;;8.82;;
58017;SDS011;43810;50.860;19.226;2023-03-01T15:21:18;15.93;;;8.73;;
58017;SDS011;43810;50.860;19.226;2023-03-01T15:23:55;15.60;;;8.05;;
58017;SDS011;43810;50.860;19.226;2023-03-01T15:26:25;21.02;;;8.30;;
58017;SDS011;43810;50.860;19.226;2023-03-01T15:28:56;22.35;;;9.55;;
58017;SDS011;43810;50.860;19.226;2023-03-01T15:31:26;16.45;;;8.70;;
58017;SDS011;43810;50.860;19.226;2023-03-01T15:36:49;22.63;;;10.35;;
58017;SDS011;43810;50.860;19.226;2023-03-01T15:39:29;18.42;;;9.05;;
58017;SDS011;43810;50.860;19.226;2023-03-01T15:41:56;22.17;;;9.40;;
58017;SDS011;43810;50.860;19.226;2023-03-01T15:44:25;24.85;;;9.18;;
58017;SDS011;43810;50.860;19.226;2023-03-01T15:46:56;20.77;;;8.88;;
58017;SDS011;43810;50.860;19.226;2023-03-01T15:52:00;17.88;;;8.57;;
58017;SDS011;43810;50.860;19.226;2023-03-01T15:54:27;21.20;;;8.98;;
58017;SDS011;43810;50.860;19.226;2023-03-01T15:56:53;18.17;;;8.45;;
58017;SDS011;43810;50.860;19.226;2023-03-01T15:59:19;20.63;;;8.75;;
58017;SDS011;43810;50.860;19.226;2023-03-01T16:01:45;20.20;;;9.25;;
58017;SDS011;43810;50.860;19.226;2023-03-01T16:04:14;22.83;;;9.30;;
58017;SDS011;43810;50.860;19.226;2023-03-01T16:06:46;20.88;;;8.52;;
58017;SDS011;43810;50.860;19.226;2023-03-01T16:09:22;32.92;;;10.15;;
58017;SDS011;43810;50.860;19.226;2023-03-01T16:11:52;24.90;;;9.80;;
58017;SDS011;43810;50.860;19.226;2023-03-01T16:14:18;19.00;;;9.23;;
58017;SDS011;43810;50.860;19.226;2023-03-01T16:16:45;24.70;;;8.93;;
58017;SDS011;43810;50.860;19.226;2023-03-01T16:19:13;34.35;;;12.52;;
58017;SDS011;43810;50.860;19.226;2023-03-01T16:21:40;58.70;;;15.00;;